sensor_id;sensor_type;location;lat;lon;timestamp;temperature;humidity
2935;DHT22;2462;51.456;7.248;2023-06-22T00:01:18;27.40;73.20
2935;DHT22;2462;51.456;7.248;2023-06-22T00:03:44;27.40;73.30
2935;DHT22;2462;51.456;7.248;2023-06-22T00:06:10;27.40;73.30
2935;DHT22;2462;51.456;7.248;2023-06-22T00:08:35;27.30;73.30
2935;DHT22;2462;51.456;7.248;2023-06-22T00:11:01;27.30;73.40
2935;DHT22;2462;51.456;7.248;2023-06-22T00:13:26;27.30;73.40
2935;DHT22;2462;51.456;7.248;2023-06-22T00:15:52;27.30;73.50
2935;DHT22;2462;51.456;7.248;2023-06-22T00:18:17;27.20;73.50
2935;DHT22;2462;51.456;7.248;2023-06-22T00:20:43;27.30;73.60
2935;DHT22;2462;51.456;7.248;2023-06-22T00:23:11;27.20;73.70
2935;DHT22;2462;51.456;7.248;2023-06-22T00:25:37;27.20;73.70
2935;DHT22;2462;51.456;7.248;2023-06-22T00:28:03;27.20;73.90
2935;DHT22;2462;51.456;7.248;2023-06-22T00:30:30;27.20;74.00
2935;DHT22;2462;51.456;7.248;2023-06-22T00:32:56;27.10;73.80
2935;DHT22;2462;51.456;7.248;2023-06-22T00:35:21;27.10;73.90
2935;DHT22;2462;51.456;7.248;2023-06-22T00:37:47;27.10;74.00
2935;DHT22;2462;51.456;7.248;2023-06-22T00:40:12;27.10;74.10
2935;DHT22;2462;51.456;7.248;2023-06-22T00:42:39;27.10;74.10
2935;DHT22;2462;51.456;7.248;2023-06-22T00:45:06;27.20;74.10
2935;DHT22;2462;51.456;7.248;2023-06-22T00:47:32;27.20;74.10
2935;DHT22;2462;51.456;7.248;2023-06-22T00:49:59;27.20;74.10
2935;DHT22;2462;51.456;7.248;2023-06-22T00:52:26;27.10;74.10
2935;DHT22;2462;51.456;7.248;2023-06-22T00:54:56;27.10;74.10
2935;DHT22;2462;51.456;7.248;2023-06-22T00:57:22;27.10;74.20
2935;DHT22;2462;51.456;7.248;2023-06-22T00:59:51;27.10;74.30
2935;DHT22;2462;51.456;7.248;2023-06-22T01:02:16;27.10;74.30
2935;DHT22;2462;51.456;7.248;2023-06-22T01:04:42;27.00;74.30
2935;DHT22;2462;51.456;7.248;2023-06-22T01:07:35;27.00;74.40
2935;DHT22;2462;51.456;7.248;2023-06-22T01:10:17;27.00;74.50
2935;DHT22;2462;51.456;7.248;2023-06-22T01:12:50;27.00;74.50
2935;DHT22;2462;51.456;7.248;2023-06-22T01:15:37;27.00;74.60
2935;DHT22;2462;51.456;7.248;2023-06-22T01:18:04;27.00;74.60
2935;DHT22;2462;51.456;7.248;2023-06-22T01:20:32;26.90;74.60
2935;DHT22;2462;51.456;7.248;2023-06-22T01:23:05;26.90;74.60
2935;DHT22;2462;51.456;7.248;2023-06-22T01:25:41;26.90;74.70
2935;DHT22;2462;51.456;7.248;2023-06-22T01:30:51;26.90;74.80
2935;DHT22;2462;51.456;7.248;2023-06-22T01:33:29;26.90;74.80
2935;DHT22;2462;51.456;7.248;2023-06-22T01:35:56;26.90;75.60
2935;DHT22;2462;51.456;7.248;2023-06-22T01:38:22;26.90;74.90
2935;DHT22;2462;51.456;7.248;2023-06-22T01:40:48;26.90;75.00
2935;DHT22;2462;51.456;7.248;2023-06-22T01:43:15;26.90;75.10
2935;DHT22;2462;51.456;7.248;2023-06-22T01:45:41;26.90;75.10
2935;DHT22;2462;51.456;7.248;2023-06-22T01:48:07;26.90;75.10
2935;DHT22;2462;51.456;7.248;2023-06-22T01:50:33;26.80;75.20
2935;DHT22;2462;51.456;7.248;2023-06-22T01:52:58;26.90;75.30
2935;DHT22;2462;51.456;7.248;2023-06-22T01:55:24;26.80;75.30
2935;DHT22;2462;51.456;7.248;2023-06-22T01:57:49;26.80;75.30
2935;DHT22;2462;51.456;7.248;2023-06-22T02:00:20;26.70;75.40
2935;DHT22;2462;51.456;7.248;2023-06-22T02:05:20;26.70;75.50
2935;DHT22;2462;51.456;7.248;2023-06-22T02:08:03;26.70;75.50
2935;DHT22;2462;51.456;7.248;2023-06-22T02:10:31;26.70;75.50
2935;DHT22;2462;51.456;7.248;2023-06-22T02:12:58;26.70;75.50
2935;DHT22;2462;51.456;7.248;2023-06-22T02:15:25;26.60;75.60
2935;DHT22;2462;51.456;7.248;2023-06-22T02:17:51;26.70;75.60
2935;DHT22;2462;51.456;7.248;2023-06-22T02:20:16;26.70;75.60
2935;DHT22;2462;51.456;7.248;2023-06-22T02:22:42;26.70;75.50
2935;DHT22;2462;51.456;7.248;2023-06-22T02:25:08;26.70;75.70
2935;DHT22;2462;51.456;7.248;2023-06-22T02:27:33;26.70;75.60
2935;DHT22;2462;51.456;7.248;2023-06-22T02:30:00;26.70;75.50
2935;DHT22;2462;51.456;7.248;2023-06-22T02:32:26;26.70;75.60
2935;DHT22;2462;51.456;7.248;2023-06-22T02:34:52;26.70;75.70
2935;DHT22;2462;51.456;7.248;2023-06-22T02:37:18;26.70;75.80
2935;DHT22;2462;51.456;7.248;2023-06-22T02:39:43;26.70;75.80
2935;DHT22;2462;51.456;7.248;2023-06-22T02:42:09;26.70;75.90
2935;DHT22;2462;51.456;7.248;2023-06-22T02:44:37;26.70;76.00
2935;DHT22;2462;51.456;7.248;2023-06-22T02:47:03;26.60;75.90
2935;DHT22;2462;51.456;7.248;2023-06-22T02:49:29;26.60;75.90
2935;DHT22;2462;51.456;7.248;2023-06-22T02:51:54;26.60;75.90
2935;DHT22;2462;51.456;7.248;2023-06-22T02:54:20;26.60;76.10
2935;DHT22;2462;51.456;7.248;2023-06-22T02:56:46;26.60;76.00
2935;DHT22;2462;51.456;7.248;2023-06-22T02:59:13;26.60;76.10
2935;DHT22;2462;51.456;7.248;2023-06-22T03:01:38;26.60;76.10
2935;DHT22;2462;51.456;7.248;2023-06-22T03:04:07;26.60;76.20
2935;DHT22;2462;51.456;7.248;2023-06-22T03:06:33;26.60;76.40
2935;DHT22;2462;51.456;7.248;2023-06-22T03:09:00;26.50;76.40
2935;DHT22;2462;51.456;7.248;2023-06-22T03:11:26;26.50;76.40
2935;DHT22;2462;51.456;7.248;2023-06-22T03:13:52;26.50;76.60
2935;DHT22;2462;51.456;7.248;2023-06-22T03:16:18;26.50;76.50
2935;DHT22;2462;51.456;7.248;2023-06-22T03:18:44;26.50;76.40
2935;DHT22;2462;51.456;7.248;2023-06-22T03:21:10;26.50;76.50
2935;DHT22;2462;51.456;7.248;2023-06-22T03:23:35;26.50;76.50
2935;DHT22;2462;51.456;7.248;2023-06-22T03:26:01;26.50;76.50
2935;DHT22;2462;51.456;7.248;2023-06-22T03:28:27;26.40;76.50
2935;DHT22;2462;51.456;7.248;2023-06-22T03:30:53;26.40;76.60
2935;DHT22;2462;51.456;7.248;2023-06-22T03:33:18;26.40;76.70
2935;DHT22;2462;51.456;7.248;2023-06-22T03:35:44;26.40;76.80
2935;DHT22;2462;51.456;7.248;2023-06-22T03:38:09;26.40;76.80
2935;DHT22;2462;51.456;7.248;2023-06-22T03:40:35;26.40;76.80
2935;DHT22;2462;51.456;7.248;2023-06-22T03:43:00;26.40;76.80
2935;DHT22;2462;51.456;7.248;2023-06-22T03:45:26;26.40;76.80
2935;DHT22;2462;51.456;7.248;2023-06-22T03:47:51;26.40;76.80
2935;DHT22;2462;51.456;7.248;2023-06-22T03:50:17;26.40;76.80
2935;DHT22;2462;51.456;7.248;2023-06-22T03:52:45;26.40;76.90
2935;DHT22;2462;51.456;7.248;2023-06-22T03:55:11;26.40;76.90
2935;DHT22;2462;51.456;7.248;2023-06-22T03:57:36;26.40;76.90
2935;DHT22;2462;51.456;7.248;2023-06-22T04:00:02;26.40;76.90
2935;DHT22;2462;51.456;7.248;2023-06-22T04:02:31;26.40;76.70
2935;DHT22;2462;51.456;7.248;2023-06-22T04:04:56;26.50;76.90
2935;DHT22;2462;51.456;7.248;2023-06-22T04:07:22;26.50;76.90
2935;DHT22;2462;51.456;7.248;2023-06-22T04:09:47;26.50;76.80
2935;DHT22;2462;51.456;7.248;2023-06-22T04:12:13;26.50;76.90
2935;DHT22;2462;51.456;7.248;2023-06-22T04:14:39;26.50;76.80
2935;DHT22;2462;51.456;7.248;2023-06-22T04:17:04;26.60;76.80
2935;DHT22;2462;51.456;7.248;2023-06-22T04:19:30;26.60;76.90
2935;DHT22;2462;51.456;7.248;2023-06-22T04:21:56;26.60;76.90
2935;DHT22;2462;51.456;7.248;2023-06-22T04:24:21;26.60;76.90
2935;DHT22;2462;51.456;7.248;2023-06-22T04:26:47;26.60;76.90
2935;DHT22;2462;51.456;7.248;2023-06-22T04:29:13;26.60;77.00
2935;DHT22;2462;51.456;7.248;2023-06-22T04:31:39;26.60;77.10
2935;DHT22;2462;51.456;7.248;2023-06-22T04:34:05;26.60;77.20
2935;DHT22;2462;51.456;7.248;2023-06-22T04:36:36;26.60;77.10
2935;DHT22;2462;51.456;7.248;2023-06-22T04:39:04;26.60;77.20
2935;DHT22;2462;51.456;7.248;2023-06-22T04:41:30;26.60;77.20
2935;DHT22;2462;51.456;7.248;2023-06-22T04:44:07;26.60;77.20
2935;DHT22;2462;51.456;7.248;2023-06-22T04:46:33;26.50;77.30
2935;DHT22;2462;51.456;7.248;2023-06-22T04:49:09;26.60;77.40
2935;DHT22;2462;51.456;7.248;2023-06-22T04:51:41;26.50;77.20
2935;DHT22;2462;51.456;7.248;2023-06-22T04:54:08;26.10;77.40
2935;DHT22;2462;51.456;7.248;2023-06-22T04:56:34;25.60;78.60
2935;DHT22;2462;51.456;7.248;2023-06-22T04:59:00;25.20;80.10
2935;DHT22;2462;51.456;7.248;2023-06-22T05:01:26;25.00;80.90
2935;DHT22;2462;51.456;7.248;2023-06-22T05:03:52;24.80;81.20
2935;DHT22;2462;51.456;7.248;2023-06-22T05:06:24;24.60;82.10
2935;DHT22;2462;51.456;7.248;2023-06-22T05:08:54;24.40;82.30
2935;DHT22;2462;51.456;7.248;2023-06-22T05:11:27;24.20;83.20
2935;DHT22;2462;51.456;7.248;2023-06-22T05:13:54;24.00;84.00
2935;DHT22;2462;51.456;7.248;2023-06-22T05:16:20;23.90;85.50
2935;DHT22;2462;51.456;7.248;2023-06-22T05:18:53;23.80;85.30
2935;DHT22;2462;51.456;7.248;2023-06-22T05:21:26;23.80;86.30
2935;DHT22;2462;51.456;7.248;2023-06-22T05:23:53;23.70;85.70
2935;DHT22;2462;51.456;7.248;2023-06-22T05:26:19;23.70;86.10
2935;DHT22;2462;51.456;7.248;2023-06-22T05:28:45;23.70;87.10
2935;DHT22;2462;51.456;7.248;2023-06-22T05:31:15;23.70;87.20
2935;DHT22;2462;51.456;7.248;2023-06-22T05:33:44;23.70;87.00
2935;DHT22;2462;51.456;7.248;2023-06-22T05:36:10;23.70;87.00
2935;DHT22;2462;51.456;7.248;2023-06-22T05:38:36;23.70;86.80
2935;DHT22;2462;51.456;7.248;2023-06-22T05:41:02;23.60;87.10
2935;DHT22;2462;51.456;7.248;2023-06-22T05:43:28;23.50;87.40
2935;DHT22;2462;51.456;7.248;2023-06-22T05:45:53;23.60;87.90
2935;DHT22;2462;51.456;7.248;2023-06-22T05:48:19;23.60;87.60
2935;DHT22;2462;51.456;7.248;2023-06-22T05:50:44;23.60;87.60
2935;DHT22;2462;51.456;7.248;2023-06-22T05:53:10;23.60;87.80
2935;DHT22;2462;51.456;7.248;2023-06-22T05:55:35;23.70;87.70
2935;DHT22;2462;51.456;7.248;2023-06-22T05:58:01;23.90;87.90
2935;DHT22;2462;51.456;7.248;2023-06-22T06:00:29;24.00;87.20
2935;DHT22;2462;51.456;7.248;2023-06-22T06:02:54;24.00;86.80
2935;DHT22;2462;51.456;7.248;2023-06-22T06:05:20;23.90;86.20
2935;DHT22;2462;51.456;7.248;2023-06-22T06:07:46;24.00;86.60
2935;DHT22;2462;51.456;7.248;2023-06-22T06:10:12;24.00;86.30
2935;DHT22;2462;51.456;7.248;2023-06-22T06:12:37;24.00;86.20
2935;DHT22;2462;51.456;7.248;2023-06-22T06:15:04;24.00;85.70
2935;DHT22;2462;51.456;7.248;2023-06-22T06:17:29;24.00;85.80
2935;DHT22;2462;51.456;7.248;2023-06-22T06:19:55;24.10;85.40
2935;DHT22;2462;51.456;7.248;2023-06-22T06:22:21;24.20;85.00
2935;DHT22;2462;51.456;7.248;2023-06-22T06:24:48;24.20;85.20
2935;DHT22;2462;51.456;7.248;2023-06-22T06:27:13;24.30;85.30
2935;DHT22;2462;51.456;7.248;2023-06-22T06:29:39;24.30;86.10
2935;DHT22;2462;51.456;7.248;2023-06-22T06:32:05;24.40;85.90
2935;DHT22;2462;51.456;7.248;2023-06-22T06:36:57;24.50;84.20
2935;DHT22;2462;51.456;7.248;2023-06-22T06:39:22;24.50;84.70
2935;DHT22;2462;51.456;7.248;2023-06-22T06:41:48;24.50;84.60
2935;DHT22;2462;51.456;7.248;2023-06-22T06:44:13;24.60;84.50
2935;DHT22;2462;51.456;7.248;2023-06-22T06:46:39;24.60;84.70
2935;DHT22;2462;51.456;7.248;2023-06-22T06:49:05;24.50;84.50
2935;DHT22;2462;51.456;7.248;2023-06-22T06:51:30;24.40;84.70
2935;DHT22;2462;51.456;7.248;2023-06-22T06:53:56;24.50;85.10
2935;DHT22;2462;51.456;7.248;2023-06-22T06:56:21;24.50;85.20
2935;DHT22;2462;51.456;7.248;2023-06-22T06:58:50;24.60;84.50
2935;DHT22;2462;51.456;7.248;2023-06-22T07:01:16;24.60;84.90
2935;DHT22;2462;51.456;7.248;2023-06-22T07:03:44;24.80;85.00
2935;DHT22;2462;51.456;7.248;2023-06-22T07:06:10;24.90;84.50
2935;DHT22;2462;51.456;7.248;2023-06-22T07:08:35;25.20;84.30
2935;DHT22;2462;51.456;7.248;2023-06-22T07:11:02;25.30;84.10
2935;DHT22;2462;51.456;7.248;2023-06-22T07:13:27;25.40;83.70
2935;DHT22;2462;51.456;7.248;2023-06-22T07:15:53;25.60;83.50
2935;DHT22;2462;51.456;7.248;2023-06-22T07:18:19;25.70;83.20
2935;DHT22;2462;51.456;7.248;2023-06-22T07:20:44;25.80;83.00
2935;DHT22;2462;51.456;7.248;2023-06-22T07:23:10;25.90;82.70
2935;DHT22;2462;51.456;7.248;2023-06-22T07:25:35;26.00;82.50
2935;DHT22;2462;51.456;7.248;2023-06-22T07:28:03;26.10;82.20
2935;DHT22;2462;51.456;7.248;2023-06-22T07:30:30;26.10;81.90
2935;DHT22;2462;51.456;7.248;2023-06-22T07:32:56;26.20;81.90
2935;DHT22;2462;51.456;7.248;2023-06-22T07:35:22;26.20;81.90
2935;DHT22;2462;51.456;7.248;2023-06-22T07:37:48;26.30;81.90
2935;DHT22;2462;51.456;7.248;2023-06-22T07:40:13;26.30;81.70
2935;DHT22;2462;51.456;7.248;2023-06-22T07:42:39;26.30;81.50
2935;DHT22;2462;51.456;7.248;2023-06-22T07:45:06;26.40;81.30
2935;DHT22;2462;51.456;7.248;2023-06-22T07:47:34;26.50;81.20
2935;DHT22;2462;51.456;7.248;2023-06-22T07:50:01;26.50;81.40
2935;DHT22;2462;51.456;7.248;2023-06-22T07:52:27;26.60;81.40
2935;DHT22;2462;51.456;7.248;2023-06-22T07:54:53;26.70;81.10
2935;DHT22;2462;51.456;7.248;2023-06-22T07:57:19;26.80;80.80
2935;DHT22;2462;51.456;7.248;2023-06-22T07:59:45;26.90;80.70
2935;DHT22;2462;51.456;7.248;2023-06-22T08:02:11;26.90;80.80
2935;DHT22;2462;51.456;7.248;2023-06-22T08:04:36;27.10;80.70
2935;DHT22;2462;51.456;7.248;2023-06-22T08:07:02;27.10;80.30
2935;DHT22;2462;51.456;7.248;2023-06-22T08:09:32;27.20;80.50
2935;DHT22;2462;51.456;7.248;2023-06-22T08:11:58;27.20;80.50
2935;DHT22;2462;51.456;7.248;2023-06-22T08:14:26;27.20;81.00
2935;DHT22;2462;51.456;7.248;2023-06-22T08:16:51;27.20;80.90
2935;DHT22;2462;51.456;7.248;2023-06-22T08:19:17;27.20;80.60
2935;DHT22;2462;51.456;7.248;2023-06-22T08:21:43;27.20;81.00
2935;DHT22;2462;51.456;7.248;2023-06-22T08:24:09;27.30;81.20
2935;DHT22;2462;51.456;7.248;2023-06-22T08:26:34;27.20;80.70
2935;DHT22;2462;51.456;7.248;2023-06-22T08:29:04;27.30;81.00
2935;DHT22;2462;51.456;7.248;2023-06-22T08:31:31;27.30;81.00
2935;DHT22;2462;51.456;7.248;2023-06-22T08:33:59;27.40;81.10
2935;DHT22;2462;51.456;7.248;2023-06-22T08:36:25;27.40;81.10
2935;DHT22;2462;51.456;7.248;2023-06-22T08:38:54;27.50;81.10
2935;DHT22;2462;51.456;7.248;2023-06-22T08:41:26;27.70;80.90
2935;DHT22;2462;51.456;7.248;2023-06-22T08:43:52;27.80;80.90
2935;DHT22;2462;51.456;7.248;2023-06-22T08:46:19;27.80;80.80
2935;DHT22;2462;51.456;7.248;2023-06-22T08:48:48;27.90;80.90
2935;DHT22;2462;51.456;7.248;2023-06-22T08:51:14;27.90;81.00
2935;DHT22;2462;51.456;7.248;2023-06-22T08:53:40;28.00;80.90
2935;DHT22;2462;51.456;7.248;2023-06-22T08:56:05;28.00;80.60
2935;DHT22;2462;51.456;7.248;2023-06-22T08:58:31;27.70;84.10
2935;DHT22;2462;51.456;7.248;2023-06-22T09:00:56;27.20;85.50
2935;DHT22;2462;51.456;7.248;2023-06-22T09:03:22;26.90;87.70
2935;DHT22;2462;51.456;7.248;2023-06-22T09:05:52;26.70;89.80
2935;DHT22;2462;51.456;7.248;2023-06-22T09:08:17;26.60;90.50
2935;DHT22;2462;51.456;7.248;2023-06-22T09:10:43;26.60;90.30
2935;DHT22;2462;51.456;7.248;2023-06-22T09:13:08;26.50;90.20
2935;DHT22;2462;51.456;7.248;2023-06-22T09:15:34;26.40;90.50
2935;DHT22;2462;51.456;7.248;2023-06-22T09:18:00;26.40;90.70
2935;DHT22;2462;51.456;7.248;2023-06-22T09:20:26;26.60;90.90
2935;DHT22;2462;51.456;7.248;2023-06-22T09:22:51;26.60;91.20
2935;DHT22;2462;51.456;7.248;2023-06-22T09:25:17;26.90;90.90
2935;DHT22;2462;51.456;7.248;2023-06-22T09:27:42;27.00;91.10
2935;DHT22;2462;51.456;7.248;2023-06-22T09:30:08;27.30;91.10
2935;DHT22;2462;51.456;7.248;2023-06-22T09:32:34;27.50;90.10
2935;DHT22;2462;51.456;7.248;2023-06-22T09:35:03;27.60;90.40
2935;DHT22;2462;51.456;7.248;2023-06-22T09:37:30;27.90;90.10
2935;DHT22;2462;51.456;7.248;2023-06-22T09:42:22;28.60;89.70
2935;DHT22;2462;51.456;7.248;2023-06-22T09:44:48;28.80;90.00
2935;DHT22;2462;51.456;7.248;2023-06-22T09:49:39;29.30;86.10
2935;DHT22;2462;51.456;7.248;2023-06-22T09:52:05;29.20;84.60
2935;DHT22;2462;51.456;7.248;2023-06-22T09:54:31;29.20;82.10
2935;DHT22;2462;51.456;7.248;2023-06-22T09:56:56;29.20;82.00
2935;DHT22;2462;51.456;7.248;2023-06-22T09:59:22;29.10;81.60
2935;DHT22;2462;51.456;7.248;2023-06-22T10:01:47;29.10;80.10
2935;DHT22;2462;51.456;7.248;2023-06-22T10:04:13;29.20;80.50
2935;DHT22;2462;51.456;7.248;2023-06-22T10:06:38;29.30;80.90
2935;DHT22;2462;51.456;7.248;2023-06-22T10:09:06;29.20;80.30
2935;DHT22;2462;51.456;7.248;2023-06-22T10:11:32;29.20;80.90
2935;DHT22;2462;51.456;7.248;2023-06-22T10:14:01;29.30;81.90
2935;DHT22;2462;51.456;7.248;2023-06-22T10:16:31;29.30;79.90
2935;DHT22;2462;51.456;7.248;2023-06-22T10:18:57;29.40;80.50
2935;DHT22;2462;51.456;7.248;2023-06-22T10:23:49;29.70;78.60
2935;DHT22;2462;51.456;7.248;2023-06-22T10:26:14;29.70;78.40
2935;DHT22;2462;51.456;7.248;2023-06-22T10:28:40;29.80;78.80
2935;DHT22;2462;51.456;7.248;2023-06-22T10:31:05;29.90;80.00
2935;DHT22;2462;51.456;7.248;2023-06-22T10:33:31;30.00;78.30
2935;DHT22;2462;51.456;7.248;2023-06-22T10:35:56;30.10;78.70
2935;DHT22;2462;51.456;7.248;2023-06-22T10:38:22;30.10;78.10
2935;DHT22;2462;51.456;7.248;2023-06-22T10:40:47;30.00;77.50
2935;DHT22;2462;51.456;7.248;2023-06-22T10:43:13;30.10;78.00
2935;DHT22;2462;51.456;7.248;2023-06-22T10:45:38;30.00;78.00
2935;DHT22;2462;51.456;7.248;2023-06-22T10:48:04;30.20;77.70
2935;DHT22;2462;51.456;7.248;2023-06-22T10:50:30;30.40;78.50
2935;DHT22;2462;51.456;7.248;2023-06-22T10:52:55;30.30;77.00
2935;DHT22;2462;51.456;7.248;2023-06-22T10:55:21;30.20;77.20
2935;DHT22;2462;51.456;7.248;2023-06-22T10:57:46;30.10;77.10
2935;DHT22;2462;51.456;7.248;2023-06-22T11:00:13;30.10;78.30
2935;DHT22;2462;51.456;7.248;2023-06-22T11:02:38;30.20;79.20
2935;DHT22;2462;51.456;7.248;2023-06-22T11:05:04;30.00;79.60
2935;DHT22;2462;51.456;7.248;2023-06-22T11:07:30;30.00;79.40
2935;DHT22;2462;51.456;7.248;2023-06-22T11:09:56;29.80;80.50
2935;DHT22;2462;51.456;7.248;2023-06-22T11:12:22;29.70;80.10
2935;DHT22;2462;51.456;7.248;2023-06-22T11:14:47;29.60;79.10
2935;DHT22;2462;51.456;7.248;2023-06-22T11:17:15;29.50;81.50
2935;DHT22;2462;51.456;7.248;2023-06-22T11:19:41;29.40;85.80
2935;DHT22;2462;51.456;7.248;2023-06-22T11:22:06;29.50;85.60
2935;DHT22;2462;51.456;7.248;2023-06-22T11:24:32;29.60;85.00
2935;DHT22;2462;51.456;7.248;2023-06-22T11:26:57;29.60;84.60
2935;DHT22;2462;51.456;7.248;2023-06-22T11:29:23;29.70;83.70
2935;DHT22;2462;51.456;7.248;2023-06-22T11:31:49;29.70;83.30
2935;DHT22;2462;51.456;7.248;2023-06-22T11:34:14;29.70;83.70
2935;DHT22;2462;51.456;7.248;2023-06-22T11:36:40;29.70;82.10
2935;DHT22;2462;51.456;7.248;2023-06-22T11:39:07;29.70;84.20
2935;DHT22;2462;51.456;7.248;2023-06-22T11:41:34;29.70;83.80
2935;DHT22;2462;51.456;7.248;2023-06-22T11:44:00;29.70;85.80
2935;DHT22;2462;51.456;7.248;2023-06-22T11:46:26;29.60;85.00
2935;DHT22;2462;51.456;7.248;2023-06-22T11:48:51;29.60;83.70
2935;DHT22;2462;51.456;7.248;2023-06-22T11:51:17;29.60;83.90
2935;DHT22;2462;51.456;7.248;2023-06-22T11:53:42;29.60;82.30
2935;DHT22;2462;51.456;7.248;2023-06-22T11:56:08;29.50;82.10
2935;DHT22;2462;51.456;7.248;2023-06-22T11:58:33;29.50;82.30
2935;DHT22;2462;51.456;7.248;2023-06-22T12:00:59;29.40;83.40
2935;DHT22;2462;51.456;7.248;2023-06-22T12:03:24;29.40;82.80
2935;DHT22;2462;51.456;7.248;2023-06-22T12:05:50;29.30;82.60
2935;DHT22;2462;51.456;7.248;2023-06-22T12:08:17;29.30;82.90
2935;DHT22;2462;51.456;7.248;2023-06-22T12:10:43;29.20;85.20
2935;DHT22;2462;51.456;7.248;2023-06-22T12:13:08;29.10;85.40
2935;DHT22;2462;51.456;7.248;2023-06-22T12:15:34;29.10;85.50
2935;DHT22;2462;51.456;7.248;2023-06-22T12:17:59;29.10;86.20
2935;DHT22;2462;51.456;7.248;2023-06-22T12:20:26;29.10;85.50
2935;DHT22;2462;51.456;7.248;2023-06-22T12:22:52;29.10;84.80
2935;DHT22;2462;51.456;7.248;2023-06-22T12:25:18;29.20;83.30
2935;DHT22;2462;51.456;7.248;2023-06-22T12:27:43;29.20;84.50
2935;DHT22;2462;51.456;7.248;2023-06-22T12:30:09;29.20;83.20
2935;DHT22;2462;51.456;7.248;2023-06-22T12:32:35;29.20;84.70
2935;DHT22;2462;51.456;7.248;2023-06-22T12:35:00;29.20;84.40
2935;DHT22;2462;51.456;7.248;2023-06-22T12:37:26;29.10;85.80
2935;DHT22;2462;51.456;7.248;2023-06-22T12:39:52;29.10;83.80
2935;DHT22;2462;51.456;7.248;2023-06-22T12:42:18;29.10;85.10
2935;DHT22;2462;51.456;7.248;2023-06-22T12:44:44;29.10;84.20
2935;DHT22;2462;51.456;7.248;2023-06-22T12:47:09;29.10;85.40
2935;DHT22;2462;51.456;7.248;2023-06-22T12:49:35;29.00;82.00
2935;DHT22;2462;51.456;7.248;2023-06-22T12:52:01;29.00;82.80
2935;DHT22;2462;51.456;7.248;2023-06-22T12:54:27;29.00;84.50
2935;DHT22;2462;51.456;7.248;2023-06-22T12:56:54;29.00;86.50
2935;DHT22;2462;51.456;7.248;2023-06-22T12:59:20;28.90;87.40
2935;DHT22;2462;51.456;7.248;2023-06-22T13:01:45;28.90;87.70
2935;DHT22;2462;51.456;7.248;2023-06-22T13:04:12;28.80;87.70
2935;DHT22;2462;51.456;7.248;2023-06-22T13:06:40;28.80;87.30
2935;DHT22;2462;51.456;7.248;2023-06-22T13:09:06;28.70;88.20
2935;DHT22;2462;51.456;7.248;2023-06-22T13:11:31;28.80;88.80
2935;DHT22;2462;51.456;7.248;2023-06-22T13:13:57;28.80;88.60
2935;DHT22;2462;51.456;7.248;2023-06-22T13:16:22;28.80;88.80
2935;DHT22;2462;51.456;7.248;2023-06-22T13:18:48;28.90;88.50
2935;DHT22;2462;51.456;7.248;2023-06-22T13:21:14;29.10;88.60
2935;DHT22;2462;51.456;7.248;2023-06-22T13:23:40;29.30;88.20
2935;DHT22;2462;51.456;7.248;2023-06-22T13:26:05;29.40;87.80
2935;DHT22;2462;51.456;7.248;2023-06-22T13:28:31;29.50;87.70
2935;DHT22;2462;51.456;7.248;2023-06-22T13:30:57;29.50;87.20
2935;DHT22;2462;51.456;7.248;2023-06-22T13:33:22;29.60;87.40
2935;DHT22;2462;51.456;7.248;2023-06-22T13:35:48;29.60;87.50
2935;DHT22;2462;51.456;7.248;2023-06-22T13:38:14;29.70;85.80
2935;DHT22;2462;51.456;7.248;2023-06-22T13:40:39;29.70;87.20
2935;DHT22;2462;51.456;7.248;2023-06-22T13:43:05;29.70;87.20
2935;DHT22;2462;51.456;7.248;2023-06-22T13:45:31;29.70;86.90
2935;DHT22;2462;51.456;7.248;2023-06-22T13:47:57;29.70;86.60
2935;DHT22;2462;51.456;7.248;2023-06-22T13:50:23;29.70;86.30
2935;DHT22;2462;51.456;7.248;2023-06-22T13:52:48;29.70;87.00
2935;DHT22;2462;51.456;7.248;2023-06-22T13:55:14;29.70;87.50
2935;DHT22;2462;51.456;7.248;2023-06-22T13:57:40;29.70;87.90
2935;DHT22;2462;51.456;7.248;2023-06-22T14:00:06;29.70;87.80
2935;DHT22;2462;51.456;7.248;2023-06-22T14:02:33;29.70;87.80
2935;DHT22;2462;51.456;7.248;2023-06-22T14:04:59;29.80;87.90
2935;DHT22;2462;51.456;7.248;2023-06-22T14:07:24;29.80;87.50
2935;DHT22;2462;51.456;7.248;2023-06-22T14:09:50;29.80;86.10
2935;DHT22;2462;51.456;7.248;2023-06-22T14:12:16;29.80;85.10
2935;DHT22;2462;51.456;7.248;2023-06-22T14:14:47;29.80;86.80
2935;DHT22;2462;51.456;7.248;2023-06-22T14:17:13;29.80;86.60
2935;DHT22;2462;51.456;7.248;2023-06-22T14:19:38;29.80;85.90
2935;DHT22;2462;51.456;7.248;2023-06-22T14:22:04;29.80;84.60
2935;DHT22;2462;51.456;7.248;2023-06-22T14:24:29;29.80;84.90
2935;DHT22;2462;51.456;7.248;2023-06-22T14:26:55;29.80;87.80
2935;DHT22;2462;51.456;7.248;2023-06-22T14:29:25;29.80;86.50
2935;DHT22;2462;51.456;7.248;2023-06-22T14:31:51;29.80;86.60
2935;DHT22;2462;51.456;7.248;2023-06-22T14:34:16;29.70;86.40
2935;DHT22;2462;51.456;7.248;2023-06-22T14:36:42;29.70;85.60
2935;DHT22;2462;51.456;7.248;2023-06-22T14:39:09;29.70;84.90
2935;DHT22;2462;51.456;7.248;2023-06-22T14:41:34;29.70;85.30
2935;DHT22;2462;51.456;7.248;2023-06-22T14:44:00;29.70;86.30
2935;DHT22;2462;51.456;7.248;2023-06-22T14:46:27;29.70;87.00
2935;DHT22;2462;51.456;7.248;2023-06-22T14:48:53;29.70;86.50
2935;DHT22;2462;51.456;7.248;2023-06-22T14:51:18;29.70;86.10
2935;DHT22;2462;51.456;7.248;2023-06-22T14:53:45;29.70;87.60
2935;DHT22;2462;51.456;7.248;2023-06-22T14:56:10;29.60;87.50
2935;DHT22;2462;51.456;7.248;2023-06-22T14:58:37;29.60;88.20
2935;DHT22;2462;51.456;7.248;2023-06-22T15:01:05;29.60;87.90
2935;DHT22;2462;51.456;7.248;2023-06-22T15:03:34;29.60;88.10
2935;DHT22;2462;51.456;7.248;2023-06-22T15:06:01;29.60;85.60
2935;DHT22;2462;51.456;7.248;2023-06-22T15:08:27;29.60;86.30
2935;DHT22;2462;51.456;7.248;2023-06-22T15:10:53;29.60;86.90
2935;DHT22;2462;51.456;7.248;2023-06-22T15:13:19;29.60;85.50
2935;DHT22;2462;51.456;7.248;2023-06-22T15:15:46;29.60;84.80
2935;DHT22;2462;51.456;7.248;2023-06-22T15:18:16;29.60;85.70
2935;DHT22;2462;51.456;7.248;2023-06-22T15:20:42;29.50;86.20
2935;DHT22;2462;51.456;7.248;2023-06-22T15:23:12;29.50;85.90
2935;DHT22;2462;51.456;7.248;2023-06-22T15:25:38;29.40;88.20
2935;DHT22;2462;51.456;7.248;2023-06-22T15:28:03;29.30;88.70
2935;DHT22;2462;51.456;7.248;2023-06-22T15:30:29;29.30;89.40
2935;DHT22;2462;51.456;7.248;2023-06-22T15:32:56;29.20;89.50
2935;DHT22;2462;51.456;7.248;2023-06-22T15:35:22;29.20;88.10
2935;DHT22;2462;51.456;7.248;2023-06-22T15:37:47;29.10;88.30
2935;DHT22;2462;51.456;7.248;2023-06-22T15:40:13;29.10;89.70
2935;DHT22;2462;51.456;7.248;2023-06-22T15:42:38;29.00;88.70
2935;DHT22;2462;51.456;7.248;2023-06-22T15:45:04;28.90;89.60
2935;DHT22;2462;51.456;7.248;2023-06-22T15:47:30;28.90;89.00
2935;DHT22;2462;51.456;7.248;2023-06-22T15:49:56;28.90;85.90
2935;DHT22;2462;51.456;7.248;2023-06-22T15:52:21;28.80;87.90
2935;DHT22;2462;51.456;7.248;2023-06-22T15:54:47;28.70;86.60
2935;DHT22;2462;51.456;7.248;2023-06-22T15:57:13;28.70;86.90
2935;DHT22;2462;51.456;7.248;2023-06-22T15:59:40;28.70;84.30
2935;DHT22;2462;51.456;7.248;2023-06-22T16:02:06;28.60;84.40
2935;DHT22;2462;51.456;7.248;2023-06-22T16:04:32;28.60;82.70
2935;DHT22;2462;51.456;7.248;2023-06-22T16:06:58;28.60;82.70
2935;DHT22;2462;51.456;7.248;2023-06-22T16:09:23;28.60;83.70
2935;DHT22;2462;51.456;7.248;2023-06-22T16:11:49;28.50;85.40